createdAt,value
2022-10-13T06:51:09.361Z,99.90
2022-10-13T06:56:07.558Z,99.90
2022-10-13T07:23:07.850Z,99.90
2022-10-13T07:28:01.649Z,99.90
2022-10-13T07:47:39.975Z,99.90
2022-10-13T07:52:33.650Z,99.90
2022-10-13T07:57:28.270Z,99.90
2022-10-13T08:02:22.434Z,99.90
2022-10-13T08:20:02.257Z,99.90
2022-10-13T08:24:56.111Z,99.90
2022-10-13T08:29:50.309Z,99.90
2022-10-13T08:34:44.539Z,99.90
2022-10-13T08:39:39.692Z,99.90
2022-10-13T08:45:15.784Z,99.90
2022-10-13T08:49:56.497Z,99.90
2022-10-13T08:54:56.434Z,99.90
2022-10-13T08:59:51.430Z,99.90
2022-10-13T09:04:49.526Z,99.90
2022-10-13T09:09:43.494Z,99.90
2022-10-13T09:14:40.353Z,99.90
2022-10-13T09:19:36.680Z,99.90
2022-10-13T09:24:32.331Z,99.90
2022-10-13T09:29:27.958Z,99.90
2022-10-13T09:34:27.004Z,99.90
2022-10-13T09:39:25.148Z,99.90
2022-10-13T09:44:28.297Z,99.90
2022-10-13T09:49:45.093Z,99.90
2022-10-13T09:54:44.850Z,99.90
2022-10-13T09:59:42.698Z,99.90
2022-10-13T10:04:42.402Z,99.90
2022-10-13T10:09:41.110Z,99.90
2022-10-13T10:14:39.376Z,99.90
2022-10-13T10:19:53.511Z,99.90
2022-10-13T10:24:55.149Z,99.90
2022-10-13T10:29:54.273Z,99.90
2022-10-13T10:34:54.875Z,99.90
2022-10-13T10:39:57.447Z,99.90
2022-10-13T10:44:53.942Z,99.90
2022-10-13T10:49:49.095Z,99.90
2022-10-13T10:54:50.767Z,99.90
2022-10-13T11:00:01.060Z,99.90
2022-10-13T11:04:55.475Z,99.90
2022-10-13T11:10:05.168Z,99.90
2022-10-13T11:15:11.397Z,99.90
2022-10-13T11:20:43.611Z,99.80
2022-10-13T11:25:39.767Z,99.90
2022-10-13T11:30:50.677Z,97.80
2022-10-13T11:35:44.587Z,96.90
2022-10-13T11:40:46.338Z,97.60
2022-10-13T11:46:07.847Z,96.40
2022-10-13T11:51:16.837Z,96.60
2022-10-13T11:56:22.315Z,96.00
2022-10-13T12:01:19.250Z,95.80
2022-10-13T12:06:33.327Z,95.10
2022-10-13T12:11:29.462Z,95.20
2022-10-13T12:16:23.760Z,94.80
2022-10-13T12:21:21.175Z,93.40
2022-10-13T12:26:19.164Z,92.40
2022-10-13T12:31:20.903Z,92.70
2022-10-13T12:36:18.941Z,92.00
2022-10-13T12:41:13.302Z,91.90
2022-10-13T12:46:09.728Z,92.10
2022-10-13T12:51:17.247Z,92.00
2022-10-13T12:56:24.959Z,91.30
2022-10-13T13:01:29.403Z,90.50
2022-10-13T13:06:29.913Z,89.30
2022-10-13T13:11:34.589Z,87.30
2022-10-13T13:16:32.679Z,85.10
2022-10-13T13:21:26.458Z,84.20
2022-10-13T13:26:21.994Z,84.20
2022-10-13T13:31:16.687Z,83.00
2022-10-13T13:36:17.704Z,81.90
2022-10-13T13:41:13.769Z,79.90
2022-10-13T13:46:08.483Z,80.40
2022-10-13T13:51:02.312Z,78.90
2022-10-13T13:55:57.514Z,77.10
2022-10-13T14:00:51.533Z,77.30
2022-10-13T14:05:45.074Z,78.30
2022-10-13T14:10:41.548Z,80.00
2022-10-13T14:15:36.594Z,81.90
2022-10-13T14:20:30.187Z,83.00
2022-10-13T14:25:24.377Z,83.90
2022-10-13T14:30:18.358Z,83.00
2022-10-13T14:35:13.855Z,82.10
2022-10-13T14:40:08.365Z,80.70
2022-10-13T14:45:03.289Z,80.10
2022-10-13T14:49:57.102Z,81.10
2022-10-13T14:54:52.255Z,82.30
2022-10-13T14:59:45.924Z,83.30
2022-10-13T15:04:39.665Z,83.70
2022-10-13T15:09:45.294Z,89.80
2022-10-13T15:14:48.553Z,92.50
2022-10-13T15:19:42.204Z,94.80
2022-10-13T15:24:35.758Z,96.20
2022-10-13T15:29:29.351Z,97.40
2022-10-13T15:34:24.667Z,98.30
2022-10-13T15:39:18.787Z,99.10
2022-10-13T15:44:12.460Z,99.90
2022-10-13T15:49:06.146Z,99.90
2022-10-13T15:54:01.582Z,99.90
2022-10-13T15:58:55.163Z,99.90
2022-10-13T16:03:48.991Z,99.90
2022-10-13T16:08:44.186Z,99.90
2022-10-13T16:13:41.866Z,99.90
2022-10-13T16:18:40.702Z,99.90
2022-10-13T16:23:34.581Z,99.90
2022-10-13T16:28:28.651Z,99.90
2022-10-13T16:33:24.114Z,99.90
2022-10-13T16:38:18.080Z,99.90
2022-10-13T16:43:11.933Z,99.90
2022-10-13T16:48:10.058Z,99.90
2022-10-13T16:53:05.526Z,99.90
2022-10-13T16:57:59.190Z,99.90
2022-10-13T17:02:53.048Z,99.90
2022-10-13T17:07:46.985Z,99.90
2022-10-13T17:12:42.278Z,99.90
2022-10-13T17:17:36.550Z,99.90
2022-10-13T17:22:30.556Z,99.90
2022-10-13T17:27:24.362Z,99.90
2022-10-13T17:32:19.757Z,99.90
2022-10-13T17:37:13.565Z,99.90
2022-10-13T17:42:07.396Z,99.90
2022-10-13T17:47:01.001Z,99.90
2022-10-13T17:51:56.977Z,99.90
2022-10-13T17:56:51.927Z,99.90
2022-10-13T18:01:45.964Z,99.90
2022-10-13T18:06:41.615Z,99.90
2022-10-13T18:11:36.950Z,99.90
2022-10-13T18:16:31.126Z,99.90
2022-10-13T18:21:27.622Z,99.90
2022-10-13T18:26:21.822Z,99.90
2022-10-13T18:31:18.681Z,99.90
2022-10-13T18:36:19.899Z,99.90
2022-10-13T18:41:13.858Z,99.90
2022-10-13T18:46:08.194Z,99.90
2022-10-13T18:51:06.303Z,99.90
2022-10-13T18:56:05.239Z,99.90
2022-10-13T19:01:04.029Z,99.90
2022-10-13T19:05:59.469Z,99.90
2022-10-13T19:10:54.514Z,99.90
